Terminal Aerodrome Forecast
Issued by NWS Spokane, WA

Home | Current Version | Previous Version | Text Only | Print | Product List | Glossary On
Versions: 1 2 3 4 5 6 7 8 9 10 11 12 13 14 15 16 17
000
FTUS46 KOTX 261730
TAFLWS
TAF
KLWS 261730Z 2618/2718 06005KT 2SM -SN BR SCT006 OVC025
     FM262000 10004KT 2SM -SN BR BKN008 OVC015
     FM270300 VRB03KT 4SM -SHSN OVC009
     FM271200 24003KT 2SM -SHSN BR OVC007=

USA.gov is the U.S. government's official web portal to all federal, state and local government web resources and services.